首页
METAR-TAF:

METAR-TAF

机场 :

克卢日-纳波卡, 罗马尼亚

纬度: 46-47N, 经度: 023-34E, 海拔: 315米

当前天气观测

该预报发布于29分钟前的06:00 UTC
静风
温度 0°C
湿度 93%
气压 1019 hPa
能見度: 3500
散云层高于3300英尺
轻雾

METAR: LRCL 080600Z 00000KT 3500 BR SCT033 M00/M01 Q1019 R07/29//95

时间: 08:29 (06:29 UTC)

预报

该预报发布于1小时和29分钟前的05:00 UTC
预报有效从08日的 06点(UTC)到 08日的 15点(UTC)
风速4节,风向多变
能見度: 3000
多云层高于3000英尺
轻雾
几率 30% :
短暂存在
从 08日的 06点(UTC)到 08日的 08点(UTC)
能見度: 1500
多云层高于1000英尺
多云层高于2500英尺
(小) 冻, 雨, 轻雾
成为
从 08日的 09点(UTC)到 08日的 11点(UTC)
能見度: 7000

TAF: LRCL 080500Z 0806/0815 VRB04KT 3000 BR BKN030 PROB30 TEMPO 0806/0808 1500 -FZRA BR BKN010 BKN025 BECMG 0809/0811 7000 NSW

超过4000个机场的气象观测和天气预报(METAR&TAF报告)。

可查询的气象台以黄色和红色小点在地图上表示。

将鼠标移到小点上方,可查看气象台名称。

然后点击查看天气观测和预报。

如需切换地图:点击带黑十字的绿色按钮放大地图;点击带横线的绿色按钮缩小地图;或者点击绿色箭头查看邻近地区的地图。


METAR-TAF: